createdAt,value
2018-01-29T00:02:01.856Z,95.28
2018-01-29T00:04:29.366Z,95.30
2018-01-29T00:06:56.904Z,95.34
2018-01-29T00:09:24.409Z,95.40
2018-01-29T00:11:51.904Z,95.35
2018-01-29T00:14:19.407Z,95.38
2018-01-29T00:16:46.937Z,95.53
2018-01-29T00:19:14.457Z,95.65
2018-01-29T00:21:41.980Z,95.71
2018-01-29T00:24:09.504Z,95.75
2018-01-29T00:26:37.000Z,95.76
2018-01-29T00:29:04.504Z,95.73
2018-01-29T00:31:32.123Z,95.68
2018-01-29T00:33:59.621Z,95.65
2018-01-29T00:36:27.117Z,95.68
2018-01-29T00:38:54.628Z,95.62
2018-01-29T00:41:22.141Z,95.66
2018-01-29T00:43:49.660Z,95.73
2018-01-29T00:46:17.156Z,95.73
2018-01-29T00:48:44.689Z,95.86
2018-01-29T00:51:12.260Z,95.72
2018-01-29T00:53:39.840Z,95.66
2018-01-29T00:56:07.369Z,95.62
2018-01-29T00:58:35.592Z,95.49
2018-01-29T01:01:03.143Z,95.48
2018-01-29T01:03:30.710Z,95.52
2018-01-29T01:05:58.233Z,95.53
2018-01-29T01:08:25.764Z,95.61
2018-01-29T01:10:53.327Z,95.63
2018-01-29T01:13:20.912Z,95.61
2018-01-29T01:15:48.459Z,95.62
2018-01-29T01:18:16.012Z,95.59
2018-01-29T01:20:43.543Z,95.73
2018-01-29T01:23:11.079Z,95.73
2018-01-29T01:25:38.607Z,95.69
2018-01-29T01:28:11.140Z,95.69
2018-01-29T01:30:38.654Z,95.79
2018-01-29T01:33:06.225Z,95.86
2018-01-29T01:35:33.766Z,95.90
2018-01-29T01:38:01.313Z,95.94
2018-01-29T01:40:28.871Z,95.87
2018-01-29T01:42:56.423Z,95.77
2018-01-29T01:45:23.973Z,95.67
2018-01-29T01:47:51.550Z,95.64
2018-01-29T01:50:19.087Z,95.46
2018-01-29T01:52:46.642Z,95.38
2018-01-29T01:55:14.203Z,95.33
2018-01-29T01:57:41.731Z,95.24
2018-01-29T02:00:09.262Z,95.14
2018-01-29T02:02:36.901Z,95.15
2018-01-29T02:05:04.447Z,95.09
2018-01-29T02:07:31.993Z,95.08
2018-01-29T02:09:59.539Z,95.10
2018-01-29T02:12:27.077Z,95.14
2018-01-29T02:14:54.591Z,95.24
2018-01-29T02:17:22.140Z,95.36
2018-01-29T02:19:49.665Z,95.46
2018-01-29T02:22:17.234Z,95.47
2018-01-29T02:24:44.758Z,95.40
2018-01-29T02:27:12.298Z,95.38
2018-01-29T02:29:39.848Z,95.36
2018-01-29T02:32:07.341Z,95.46
2018-01-29T02:34:34.836Z,95.30
2018-01-29T02:37:02.352Z,95.38
2018-01-29T02:39:29.868Z,95.61
2018-01-29T02:41:57.364Z,95.60
2018-01-29T02:44:24.892Z,95.77
2018-01-29T02:46:52.392Z,95.80
2018-01-29T02:49:19.949Z,95.82
2018-01-29T02:51:47.471Z,95.78
2018-01-29T02:54:14.998Z,95.68
2018-01-29T02:56:42.536Z,95.51
2018-01-29T02:59:10.057Z,95.44
2018-01-29T03:01:37.557Z,95.39
2018-01-29T03:04:05.075Z,95.39
2018-01-29T03:06:32.572Z,95.32
2018-01-29T03:09:00.069Z,95.35
2018-01-29T03:11:27.607Z,95.38
2018-01-29T03:13:55.153Z,95.26
2018-01-29T03:16:22.812Z,95.25
2018-01-29T03:18:50.349Z,95.18
2018-01-29T03:21:17.904Z,95.08
2018-01-29T03:23:45.569Z,94.95
2018-01-29T03:26:13.081Z,94.70
2018-01-29T03:28:40.646Z,94.59
2018-01-29T03:31:08.245Z,94.41
2018-01-29T03:33:35.761Z,94.19
2018-01-29T03:36:03.276Z,94.24
2018-01-29T03:38:30.782Z,94.05
2018-01-29T03:40:58.280Z,93.83
2018-01-29T03:43:25.809Z,93.75
2018-01-29T03:45:53.327Z,93.71
2018-01-29T03:48:20.829Z,93.48
2018-01-29T03:50:48.424Z,93.40
2018-01-29T03:53:16.904Z,93.16
2018-01-29T03:55:44.462Z,93.04
2018-01-29T03:58:12.042Z,92.98
2018-01-29T04:00:40.299Z,92.89
2018-01-29T04:03:07.831Z,92.92
2018-01-29T04:05:35.405Z,92.70
2018-01-29T04:08:02.931Z,92.69
2018-01-29T04:10:30.490Z,92.73
2018-01-29T04:12:58.057Z,92.65
2018-01-29T04:15:25.597Z,92.47
2018-01-29T04:17:53.190Z,92.50
2018-01-29T04:20:20.730Z,92.41
2018-01-29T04:22:48.250Z,92.24
2018-01-29T04:25:16.020Z,92.02
2018-01-29T04:27:43.545Z,91.95
2018-01-29T04:30:11.098Z,91.81
2018-01-29T04:32:38.891Z,91.76
2018-01-29T04:35:06.435Z,91.71
2018-01-29T04:37:33.956Z,91.58
2018-01-29T04:40:01.533Z,91.50
2018-01-29T04:42:29.079Z,91.28
2018-01-29T04:44:56.598Z,91.18
2018-01-29T04:47:24.175Z,91.16
2018-01-29T04:49:51.744Z,90.97
2018-01-29T04:52:19.267Z,90.85
2018-01-29T04:54:51.763Z,90.45
2018-01-29T04:57:19.326Z,90.41
2018-01-29T04:59:46.853Z,90.41
2018-01-29T05:02:14.617Z,90.49
2018-01-29T05:04:42.158Z,90.55
2018-01-29T05:07:09.683Z,90.67
2018-01-29T05:09:37.230Z,90.65
2018-01-29T05:12:04.779Z,90.80
2018-01-29T05:14:32.324Z,90.83
2018-01-29T05:16:59.883Z,90.72
2018-01-29T05:19:27.419Z,90.68
2018-01-29T05:21:54.945Z,90.77
2018-01-29T05:24:22.478Z,90.55
2018-01-29T05:26:50.007Z,90.36
2018-01-29T05:29:17.572Z,90.39
2018-01-29T05:31:45.150Z,90.33
2018-01-29T05:34:12.706Z,90.42
2018-01-29T05:39:47.957Z,90.35
2018-01-29T05:42:15.527Z,90.65
2018-01-29T05:44:43.085Z,90.65
2018-01-29T05:47:10.606Z,91.00
2018-01-29T05:49:38.162Z,91.54
2018-01-29T05:52:05.734Z,92.09
2018-01-29T05:54:33.292Z,92.14
2018-01-29T05:57:00.834Z,91.76
2018-01-29T05:59:28.398Z,91.90
2018-01-29T06:01:55.983Z,91.93
2018-01-29T06:04:23.521Z,91.66
2018-01-29T06:06:51.078Z,91.28
2018-01-29T06:09:18.620Z,91.03
2018-01-29T06:11:46.227Z,91.14
2018-01-29T06:14:13.757Z,91.08
2018-01-29T06:16:41.302Z,91.07
2018-01-29T06:19:08.905Z,90.91
2018-01-29T06:21:36.451Z,90.92
2018-01-29T06:24:03.960Z,90.70
2018-01-29T06:26:31.583Z,90.67
2018-01-29T06:28:59.129Z,90.53
2018-01-29T06:31:26.668Z,90.50
2018-01-29T06:33:54.192Z,90.44
2018-01-29T06:36:21.815Z,90.09
2018-01-29T06:38:49.341Z,89.75
2018-01-29T06:41:16.860Z,89.49
2018-01-29T06:43:44.391Z,89.18
2018-01-29T06:46:11.941Z,89.20
2018-01-29T06:48:39.512Z,88.60
2018-01-29T06:51:07.056Z,88.19
2018-01-29T06:53:34.573Z,87.57
2018-01-29T06:56:02.076Z,87.22
2018-01-29T06:58:29.627Z,86.42
2018-01-29T07:00:57.174Z,86.31
2018-01-29T07:03:24.680Z,86.31
2018-01-29T07:05:52.228Z,86.18
2018-01-29T07:08:19.782Z,85.23
2018-01-29T07:10:47.332Z,84.86
2018-01-29T07:13:14.905Z,84.69
2018-01-29T07:15:42.749Z,84.94
2018-01-29T07:18:10.245Z,84.69
2018-01-29T07:20:37.761Z,83.74
2018-01-29T07:23:05.309Z,83.13
2018-01-29T07:25:32.799Z,83.50
2018-01-29T07:28:00.366Z,83.72
2018-01-29T07:30:27.913Z,83.42
2018-01-29T07:32:55.467Z,82.65
2018-01-29T07:35:22.961Z,82.11
2018-01-29T07:37:50.496Z,82.01
2018-01-29T07:40:18.029Z,81.91
2018-01-29T07:42:45.529Z,81.57
2018-01-29T07:45:13.093Z,80.97
2018-01-29T07:47:40.646Z,80.58
2018-01-29T07:50:08.177Z,80.47
2018-01-29T07:52:35.705Z,80.27
2018-01-29T07:55:03.262Z,79.88
2018-01-29T07:57:30.764Z,79.79
2018-01-29T07:59:58.261Z,79.22
2018-01-29T08:02:25.887Z,78.90
2018-01-29T08:04:53.404Z,78.40
2018-01-29T08:07:21.031Z,78.97
2018-01-29T08:12:16.062Z,78.23
2018-01-29T08:14:43.560Z,77.45
2018-01-29T08:17:11.165Z,77.48
2018-01-29T08:19:38.690Z,77.34
2018-01-29T08:22:06.190Z,76.96
2018-01-29T08:24:33.702Z,76.88
2018-01-29T08:27:01.245Z,76.86
2018-01-29T08:29:28.812Z,76.81
2018-01-29T08:31:56.322Z,75.93
2018-01-29T08:34:23.855Z,75.99
2018-01-29T08:36:51.417Z,75.35
2018-01-29T08:39:18.941Z,75.52
2018-01-29T08:41:46.469Z,75.21
2018-01-29T08:44:14.004Z,75.45
2018-01-29T08:46:41.525Z,75.62
2018-01-29T08:49:09.046Z,75.00
2018-01-29T08:51:36.665Z,75.11
2018-01-29T08:54:04.244Z,75.17
2018-01-29T08:56:31.756Z,74.97
2018-01-29T08:58:59.301Z,74.76
2018-01-29T09:01:26.865Z,74.86
2018-01-29T09:03:54.401Z,74.58
2018-01-29T09:06:21.914Z,75.18
2018-01-29T09:08:49.453Z,74.54
2018-01-29T09:11:17.031Z,73.80
2018-01-29T09:13:44.533Z,73.70
2018-01-29T09:16:12.057Z,74.00
2018-01-29T09:18:39.581Z,73.48
2018-01-29T09:21:07.199Z,73.13
2018-01-29T09:23:34.861Z,73.06
2018-01-29T09:26:02.365Z,73.49
2018-01-29T09:28:30.009Z,73.58
2018-01-29T09:30:57.524Z,73.27
2018-01-29T09:33:25.191Z,73.16
2018-01-29T09:35:52.761Z,72.81
2018-01-29T09:38:20.304Z,72.92
2018-01-29T09:40:47.883Z,72.75
2018-01-29T09:43:15.449Z,72.97
2018-01-29T09:45:42.961Z,72.60
2018-01-29T09:48:10.477Z,72.39
2018-01-29T09:50:38.001Z,72.31
2018-01-29T09:53:05.536Z,72.47
2018-01-29T09:55:33.093Z,72.50
2018-01-29T09:58:00.629Z,71.95
2018-01-29T10:00:28.161Z,72.32
2018-01-29T10:02:55.802Z,71.78
2018-01-29T10:05:23.330Z,72.15
2018-01-29T10:07:50.852Z,71.87
2018-01-29T10:10:18.379Z,71.62
2018-01-29T10:12:45.897Z,71.70
2018-01-29T10:15:13.532Z,71.64
2018-01-29T10:17:41.054Z,71.63
2018-01-29T10:20:08.557Z,71.73
2018-01-29T10:22:36.097Z,71.26
2018-01-29T10:25:03.621Z,71.71
2018-01-29T10:27:31.208Z,71.42
2018-01-29T10:29:58.741Z,70.59
2018-01-29T10:32:26.264Z,70.71
2018-01-29T10:34:53.802Z,71.12
2018-01-29T10:37:21.322Z,71.46
2018-01-29T10:39:48.913Z,71.35
2018-01-29T10:42:16.421Z,71.71
2018-01-29T10:44:44.021Z,71.87
2018-01-29T10:47:11.553Z,71.77
2018-01-29T10:49:39.134Z,72.29
2018-01-29T10:52:06.693Z,72.02
2018-01-29T10:54:34.219Z,72.15
2018-01-29T10:57:01.770Z,72.02
2018-01-29T10:59:29.332Z,72.54
2018-01-29T11:02:02.758Z,72.44
2018-01-29T11:04:30.265Z,72.62
2018-01-29T11:06:57.765Z,72.22
2018-01-29T11:09:25.285Z,72.09
2018-01-29T11:11:52.818Z,71.98
2018-01-29T11:14:20.574Z,72.45
2018-01-29T11:16:48.101Z,72.48
2018-01-29T11:19:15.628Z,72.41
2018-01-29T11:21:43.260Z,72.02
2018-01-29T11:24:10.768Z,72.34
2018-01-29T11:26:38.311Z,72.35
2018-01-29T11:29:05.936Z,72.38
2018-01-29T11:31:33.479Z,72.42
2018-01-29T11:34:01.072Z,72.69
2018-01-29T11:36:28.596Z,72.85
2018-01-29T11:38:56.109Z,73.02
2018-01-29T11:41:23.673Z,72.55
2018-01-29T11:43:51.241Z,73.01
2018-01-29T11:46:18.749Z,73.76
2018-01-29T11:48:46.261Z,74.70
2018-01-29T11:51:13.985Z,74.25
2018-01-29T11:53:41.516Z,73.89
2018-01-29T11:56:09.021Z,73.67
2018-01-29T11:58:36.586Z,73.30
2018-01-29T12:01:04.109Z,73.23
2018-01-29T12:03:31.666Z,72.59
2018-01-29T12:05:59.231Z,72.20
2018-01-29T12:08:26.730Z,70.77
2018-01-29T12:10:54.303Z,70.97
2018-01-29T12:13:21.829Z,70.53
2018-01-29T12:15:49.329Z,70.63
2018-01-29T12:18:16.830Z,69.83
2018-01-29T12:20:44.403Z,69.66
2018-01-29T12:23:11.970Z,69.72
2018-01-29T12:25:39.496Z,69.29
2018-01-29T12:28:07.011Z,69.24
2018-01-29T12:30:34.546Z,68.98
2018-01-29T12:33:02.041Z,68.80
2018-01-29T12:35:29.729Z,68.90
2018-01-29T12:37:57.229Z,68.87
2018-01-29T12:40:24.728Z,68.43
2018-01-29T12:42:52.264Z,68.28
2018-01-29T12:45:19.789Z,68.81
2018-01-29T12:47:47.293Z,67.78
2018-01-29T12:50:14.924Z,67.70
2018-01-29T12:52:42.452Z,67.68
2018-01-29T12:55:10.068Z,66.82
2018-01-29T12:57:37.603Z,66.75
2018-01-29T13:00:05.113Z,66.46
2018-01-29T13:02:32.677Z,66.26
2018-01-29T13:05:00.181Z,66.32
2018-01-29T13:07:27.696Z,66.77
2018-01-29T13:09:55.313Z,66.21
2018-01-29T13:12:22.822Z,66.36
2018-01-29T13:14:50.340Z,66.46
2018-01-29T13:17:17.873Z,66.26
2018-01-29T13:19:45.429Z,66.57
2018-01-29T13:22:13.282Z,66.71
2018-01-29T13:24:40.815Z,66.96
2018-01-29T13:27:08.345Z,67.59
2018-01-29T13:29:35.905Z,67.87
2018-01-29T13:32:03.412Z,68.24
2018-01-29T13:34:31.009Z,68.14
2018-01-29T13:36:58.541Z,68.32
2018-01-29T13:39:26.113Z,68.49
2018-01-29T13:41:53.672Z,68.02
2018-01-29T13:44:21.219Z,68.15
2018-01-29T13:46:48.746Z,67.87
2018-01-29T13:49:16.274Z,68.09
2018-01-29T13:51:43.797Z,67.79
2018-01-29T13:54:11.321Z,67.77
2018-01-29T13:56:38.826Z,67.46
2018-01-29T13:59:06.396Z,67.56
2018-01-29T14:01:33.893Z,67.55
2018-01-29T14:04:01.610Z,67.69
2018-01-29T14:06:29.137Z,67.12
2018-01-29T14:08:56.633Z,67.07
2018-01-29T14:11:24.196Z,66.86
2018-01-29T14:13:51.701Z,67.29
2018-01-29T14:16:19.222Z,67.30
2018-01-29T14:18:46.786Z,66.84
2018-01-29T14:21:14.317Z,66.46
2018-01-29T14:23:41.822Z,66.76
2018-01-29T14:26:09.360Z,66.97
2018-01-29T14:28:36.888Z,66.93
2018-01-29T14:31:04.462Z,66.67
2018-01-29T14:33:32.036Z,66.86
2018-01-29T14:35:59.537Z,66.80
2018-01-29T14:38:27.050Z,67.05
2018-01-29T14:40:54.585Z,66.93
2018-01-29T14:43:22.133Z,67.14
2018-01-29T14:45:49.636Z,67.29
2018-01-29T14:48:17.368Z,67.30
2018-01-29T14:50:44.904Z,67.53
2018-01-29T14:53:12.456Z,68.08
2018-01-29T14:55:39.966Z,68.28
2018-01-29T14:58:07.490Z,68.71
2018-01-29T15:00:35.022Z,68.44
2018-01-29T15:03:02.566Z,68.48
2018-01-29T15:05:30.148Z,69.50
2018-01-29T15:07:57.651Z,70.46
2018-01-29T15:10:25.162Z,71.12
2018-01-29T15:12:52.706Z,71.62
2018-01-29T15:15:20.445Z,72.46
2018-01-29T15:17:48.012Z,73.48
2018-01-29T15:20:15.514Z,73.63
2018-01-29T15:22:43.045Z,74.07
2018-01-29T15:25:10.562Z,74.42
2018-01-29T15:27:38.093Z,74.89
2018-01-29T15:30:05.643Z,75.87
2018-01-29T15:32:33.169Z,77.22
2018-01-29T15:35:00.721Z,78.59
2018-01-29T15:37:28.242Z,79.52
2018-01-29T15:39:55.766Z,80.41
2018-01-29T15:42:23.509Z,81.17
2018-01-29T15:44:51.041Z,81.65
2018-01-29T15:47:18.568Z,82.46
2018-01-29T15:49:46.091Z,82.00
2018-01-29T15:52:13.615Z,82.29
2018-01-29T15:54:41.159Z,81.59
2018-01-29T15:57:08.677Z,81.09
2018-01-29T15:59:36.192Z,80.19
2018-01-29T16:02:03.721Z,80.15
2018-01-29T16:04:31.238Z,79.85
2018-01-29T16:06:58.759Z,79.16
2018-01-29T16:09:26.468Z,78.50
2018-01-29T16:11:53.965Z,77.81
2018-01-29T16:14:21.571Z,77.72
2018-01-29T16:16:49.184Z,77.53
2018-01-29T16:19:16.678Z,77.32
2018-01-29T16:21:44.260Z,77.12
2018-01-29T16:24:11.792Z,76.58
2018-01-29T16:26:39.312Z,76.54
2018-01-29T16:29:06.953Z,76.59
2018-01-29T16:31:34.525Z,77.06
2018-01-29T16:34:02.050Z,77.62
2018-01-29T16:36:29.593Z,78.59
2018-01-29T16:38:57.107Z,79.98
2018-01-29T16:41:24.615Z,81.08
2018-01-29T16:43:52.154Z,82.41
2018-01-29T16:46:19.750Z,83.59
2018-01-29T16:48:47.273Z,83.72
2018-01-29T16:51:14.813Z,84.22
2018-01-29T16:53:42.380Z,84.84
2018-01-29T16:56:09.899Z,84.28
2018-01-29T16:58:37.422Z,84.38
2018-01-29T17:01:05.006Z,84.81
2018-01-29T17:03:32.663Z,84.64
2018-01-29T17:06:00.186Z,84.78
2018-01-29T17:08:27.688Z,84.96
2018-01-29T17:10:55.253Z,84.86
2018-01-29T17:13:22.757Z,84.85
2018-01-29T17:15:50.286Z,84.84
2018-01-29T17:18:17.937Z,84.96
2018-01-29T17:20:45.468Z,84.57
2018-01-29T17:23:12.995Z,84.56
2018-01-29T17:25:40.561Z,84.74
2018-01-29T17:28:08.089Z,84.82
2018-01-29T17:30:35.618Z,85.19
2018-01-29T17:33:03.157Z,85.69
2018-01-29T17:35:30.704Z,85.94
2018-01-29T17:37:58.234Z,86.22
2018-01-29T17:40:25.932Z,85.96
2018-01-29T17:42:53.460Z,85.44
2018-01-29T17:45:20.984Z,85.91
2018-01-29T17:47:48.556Z,86.19
2018-01-29T17:50:16.083Z,86.74
2018-01-29T17:52:43.767Z,86.72
2018-01-29T17:55:11.321Z,86.67
2018-01-29T17:57:38.902Z,86.86
2018-01-29T18:00:06.432Z,86.59
2018-01-29T18:02:33.961Z,86.88
2018-01-29T18:05:01.476Z,86.16
2018-01-29T18:07:28.998Z,86.17
2018-01-29T18:09:56.541Z,85.71
2018-01-29T18:12:24.044Z,85.39
2018-01-29T18:14:51.595Z,85.39
2018-01-29T18:17:19.159Z,85.54
2018-01-29T18:19:46.656Z,85.44
2018-01-29T18:22:14.176Z,85.37
2018-01-29T18:24:41.721Z,85.70
2018-01-29T18:27:09.225Z,86.31
2018-01-29T18:29:36.732Z,85.81
2018-01-29T18:32:04.328Z,86.05
2018-01-29T18:34:31.838Z,85.33
2018-01-29T18:36:59.385Z,86.32
2018-01-29T18:39:26.898Z,86.79
2018-01-29T18:41:54.650Z,87.39
2018-01-29T18:44:22.200Z,88.50
2018-01-29T18:46:49.712Z,88.34
2018-01-29T18:49:17.264Z,88.34
2018-01-29T18:51:44.797Z,88.61
2018-01-29T18:54:12.352Z,89.02
2018-01-29T18:56:39.905Z,89.09
2018-01-29T18:59:07.448Z,89.43
2018-01-29T19:01:35.008Z,88.91
2018-01-29T19:04:02.854Z,89.17
2018-01-29T19:06:30.361Z,89.15
2018-01-29T19:08:57.868Z,89.13
2018-01-29T19:11:25.428Z,89.23
2018-01-29T19:13:52.957Z,89.53
2018-01-29T19:16:20.461Z,89.30
2018-01-29T19:18:48.057Z,89.26
2018-01-29T19:21:15.570Z,88.98
2018-01-29T19:23:43.082Z,89.10
2018-01-29T19:26:10.624Z,89.22
2018-01-29T19:28:38.145Z,89.43
2018-01-29T19:31:05.677Z,89.33
2018-01-29T19:33:33.202Z,89.54
2018-01-29T19:36:00.729Z,89.57
2018-01-29T19:38:28.245Z,89.94
2018-01-29T19:40:55.746Z,90.28
2018-01-29T19:43:23.260Z,89.58
2018-01-29T19:45:50.776Z,89.59
2018-01-29T19:48:18.315Z,89.80
2018-01-29T19:50:45.862Z,90.08
2018-01-29T19:53:13.382Z,90.31
2018-01-29T19:55:40.945Z,90.15
2018-01-29T19:58:08.512Z,90.42
2018-01-29T20:00:36.054Z,90.14
2018-01-29T20:03:03.560Z,90.51
2018-01-29T20:05:31.144Z,91.09
2018-01-29T20:07:58.668Z,91.59
2018-01-29T20:10:26.204Z,92.04
2018-01-29T20:12:53.718Z,92.18
2018-01-29T20:15:21.322Z,92.04
2018-01-29T20:17:48.864Z,92.21
2018-01-29T20:20:16.383Z,91.76
2018-01-29T20:22:43.929Z,92.48
2018-01-29T20:25:11.423Z,91.77
2018-01-29T20:27:38.945Z,91.79
2018-01-29T20:30:06.459Z,91.55
2018-01-29T20:32:34.117Z,90.51
2018-01-29T20:35:01.669Z,88.86
2018-01-29T20:37:29.243Z,88.67
2018-01-29T20:39:56.753Z,87.33
2018-01-29T20:42:24.273Z,87.57
2018-01-29T20:44:51.830Z,88.87
2018-01-29T20:47:19.325Z,89.66
2018-01-29T20:49:46.826Z,89.94
2018-01-29T20:52:14.373Z,89.93
2018-01-29T20:54:41.913Z,90.72
2018-01-29T20:57:09.454Z,91.15
2018-01-29T20:59:37.013Z,90.89
2018-01-29T21:02:04.527Z,90.56
2018-01-29T21:04:32.031Z,91.07
2018-01-29T21:06:59.550Z,91.47
2018-01-29T21:09:27.083Z,91.41
2018-01-29T21:11:54.612Z,91.91
2018-01-29T21:14:22.122Z,91.37
2018-01-29T21:16:49.661Z,91.90
2018-01-29T21:19:17.197Z,91.86
2018-01-29T21:21:44.723Z,90.86
2018-01-29T21:24:12.250Z,91.15
2018-01-29T21:26:39.814Z,90.10
2018-01-29T21:29:07.374Z,90.15
2018-01-29T21:31:34.881Z,89.48
2018-01-29T21:34:02.998Z,89.61
2018-01-29T21:36:30.566Z,89.39
2018-01-29T21:38:58.081Z,88.96
2018-01-29T21:41:25.705Z,89.36
2018-01-29T21:43:53.257Z,88.90
2018-01-29T21:46:20.763Z,89.41
2018-01-29T21:48:48.281Z,89.59
2018-01-29T21:51:15.808Z,89.12
2018-01-29T21:53:43.378Z,87.94
2018-01-29T21:56:10.904Z,87.15
2018-01-29T21:58:38.401Z,86.67
2018-01-29T22:01:05.974Z,87.29
2018-01-29T22:03:33.528Z,87.21
2018-01-29T22:06:01.060Z,85.93
2018-01-29T22:08:28.564Z,86.26
2018-01-29T22:10:56.077Z,86.19
2018-01-29T22:13:23.753Z,85.85
2018-01-29T22:15:51.313Z,86.48
2018-01-29T22:18:18.820Z,86.52
2018-01-29T22:20:46.364Z,86.67
2018-01-29T22:23:13.908Z,86.45
2018-01-29T22:25:41.463Z,85.94
2018-01-29T22:28:08.999Z,83.39
2018-01-29T22:30:36.507Z,84.64
2018-01-29T22:33:04.014Z,83.88
2018-01-29T22:35:31.825Z,83.64
2018-01-29T22:37:59.355Z,84.09
2018-01-29T22:40:26.923Z,84.14
2018-01-29T22:42:54.434Z,82.74
2018-01-29T22:45:21.990Z,82.56
2018-01-29T22:47:49.493Z,83.02
2018-01-29T22:50:17.002Z,83.24
2018-01-29T22:52:44.531Z,82.62
2018-01-29T22:55:12.080Z,82.18
2018-01-29T22:57:39.657Z,82.27
2018-01-29T23:00:07.409Z,82.58
2018-01-29T23:02:34.938Z,83.12
2018-01-29T23:05:02.509Z,83.44
2018-01-29T23:07:30.096Z,81.22
2018-01-29T23:09:57.653Z,80.56
2018-01-29T23:12:25.238Z,80.07
2018-01-29T23:14:52.745Z,80.91
2018-01-29T23:17:20.240Z,81.11
2018-01-29T23:19:47.873Z,80.92
2018-01-29T23:22:15.373Z,80.77
2018-01-29T23:24:42.903Z,80.21
2018-01-29T23:27:10.397Z,80.37
2018-01-29T23:29:37.904Z,80.25
2018-01-29T23:32:05.397Z,80.06
2018-01-29T23:34:32.947Z,80.58
2018-01-29T23:37:00.478Z,80.10
2018-01-29T23:39:27.973Z,80.13
2018-01-29T23:41:55.521Z,79.58
2018-01-29T23:44:23.021Z,78.96
2018-01-29T23:46:50.617Z,79.29
2018-01-29T23:49:18.136Z,79.38
2018-01-29T23:51:45.656Z,79.50
2018-01-29T23:54:17.017Z,79.39
2018-01-29T23:56:44.536Z,79.89
